CDT,Max TemperatureF,Mean TemperatureF,Min TemperatureF,Max Dew PointF,MeanDew PointF,Min DewpointF,Max Humidity, Mean Humidity, Min Humidity, Max Sea Level PressureIn, Mean Sea Level PressureIn, Min Sea Level PressureIn, Max VisibilityMiles, Mean VisibilityMiles, Min VisibilityMiles, Max Wind SpeedMPH, Mean Wind SpeedMPH, Max Gust SpeedMPH,PrecipitationIn, CloudCover, Events, WindDirDegrees
2012-9-1,89,81,73,79,76,73,100,85,62,30.19,30.13,30.09,10,6,0,8,1,,0.00,3,Fog,197
2012-9-2,87,82,77,79,77,73,94,84,66,30.11,30.05,29.99,10,10,5,9,2,,0.00,2,,223
2012-9-3,89,84,80,79,78,77,94,83,66,30.06,30.00,29.95,10,9,5,12,6,17,0.00,2,,231
2012-9-4,86,80,75,81,77,73,94,85,66,29.99,29.94,29.87,10,10,1,12,7,16,0.75,4,Rain,235
2012-9-5,87,80,73,79,76,73,100,87,66,29.90,29.86,29.82,10,9,5,12,4,18,0.08,7,Rain,319
2012-9-6,89,82,73,77,76,72,100,82,58,29.96,29.91,29.86,10,8,3,10,4,,0.00,4,Rain,109
2012-9-7,91,81,71,77,74,72,100,80,52,29.96,29.91,29.84,10,8,1,12,3,,0.00,2,,118
2012-9-8,91,82,73,79,74,72,100,79,52,29.91,29.84,29.78,10,9,5,12,3,20,0.02,3,Rain,332
2012-9-9,82,74,64,72,63,55,94,67,39,30.03,29.97,29.90,10,10,5,12,6,17,0.00,1,,351
2012-9-10,89,74,60,66,60,55,100,68,31,30.10,30.06,30.03,10,10,7,9,3,,0.00,0,,27
2012-9-11,89,76,62,70,64,59,100,73,38,30.17,30.11,30.06,10,10,7,10,3,16,0.00,5,,77
2012-9-12,86,78,69,72,68,64,100,79,51,30.20,30.13,30.09,10,10,10,14,4,18,0.00,5,,84
2012-9-13,89,79,69,72,68,64,100,74,48,30.18,30.14,30.09,10,8,0,10,5,16,0.00,1,,79
2012-9-14,91,80,68,70,66,63,88,71,38,30.15,30.12,30.07,10,10,5,12,5,17,0.00,1,,48
2012-9-15,89,79,69,75,70,66,100,79,52,30.13,30.08,30.04,10,10,5,9,2,,0.05,2,Rain,57
2012-9-16,87,78,69,77,73,70,100,86,58,30.07,30.02,29.96,10,9,1,13,2,22,0.82,3,Rain,120
2012-9-17,84,78,71,79,74,72,100,93,84,29.97,29.86,29.76,10,8,2,16,4,24,0.87,4,Rain,139
2012-9-18,82,76,71,77,70,64,94,79,58,29.99,29.84,29.74,10,9,4,15,8,23,0.13,3,Rain,296
2012-9-19,80,72,64,68,63,59,94,72,51,30.09,30.03,29.97,10,9,7,9,6,,0.00,0,,346
2012-9-20,,,,,,,,,,,,,,,,,,,0.00,,,-1
2012-9-21,,,,,,,,,,,,,,,,,,,,,,
2012-9-22,,,,,,,,,,,,,,,,,,,,,,
2012-9-23,69,69,69,70,68,68,100,96,94,30.15,30.15,30.15,7,5,3,0,0,,0.00,0,,-1
2012-9-24,86,75,62,70,62,55,100,69,40,30.19,30.14,30.08,10,8,0,9,3,,0.00,1,Fog,15
2012-9-25,86,70,55,63,57,54,100,72,33,30.16,30.12,30.08,10,10,7,8,1,,0.00,0,,95
2012-9-26,87,74,60,72,67,61,100,80,58,30.14,30.10,30.07,10,9,1,12,3,16,0.00,2,,104
2012-9-27,89,78,66,77,70,64,100,84,46,30.16,30.10,30.05,10,6,0,8,1,,0.00,3,Fog,182
2012-9-28,87,76,64,73,71,64,100,83,55,30.10,30.05,29.99,10,7,0,9,1,,0.00,1,Fog,204
2012-9-29,86,78,69,75,72,70,100,92,62,30.01,29.95,29.89,10,7,0,7,1,,0.75,5,Fog-Rain,37
2012-9-30,80,76,71,77,73,70,100,93,83,29.88,29.76,29.62,10,8,0,16,5,24,1.70,6,Rain,133